createdAt,value
2022-10-22T00:03:26.917Z,15.41
2022-10-22T00:07:29.039Z,15.39
2022-10-22T00:11:31.297Z,15.37
2022-10-22T00:15:33.339Z,15.34
2022-10-22T00:19:35.418Z,15.35
2022-10-22T00:23:41.240Z,15.36
2022-10-22T00:27:43.574Z,15.37
2022-10-22T00:31:49.645Z,15.39
2022-10-22T00:35:51.779Z,15.41
2022-10-22T00:39:53.837Z,15.44
2022-10-22T00:44:06.777Z,15.46
2022-10-22T00:48:17.478Z,15.53
2022-10-22T00:52:20.456Z,15.60
2022-10-22T00:56:25.997Z,15.66
2022-10-22T01:00:28.332Z,15.70
2022-10-22T01:04:30.460Z,15.74
2022-10-22T01:08:58.340Z,15.79
2022-10-22T01:13:17.558Z,15.80
2022-10-22T01:17:28.380Z,15.82
2022-10-22T01:21:43.852Z,15.80
2022-10-22T01:26:12.300Z,15.76
2022-10-22T01:30:15.726Z,15.73
2022-10-22T01:34:19.627Z,15.71
2022-10-22T01:38:24.551Z,15.70
2022-10-22T01:42:26.663Z,15.67
2022-10-22T01:46:29.286Z,15.62
2022-10-22T01:50:44.802Z,15.48
2022-10-22T01:54:58.143Z,15.34
2022-10-22T01:59:27.793Z,15.26
2022-10-22T02:03:39.024Z,15.18
2022-10-22T02:07:50.777Z,15.14
2022-10-22T02:11:54.313Z,15.10
2022-10-22T02:15:58.052Z,15.07
2022-10-22T02:20:18.054Z,15.02
2022-10-22T02:24:21.507Z,14.95
2022-10-22T02:28:39.515Z,14.88
2022-10-22T02:32:48.910Z,14.84
2022-10-22T02:36:52.003Z,14.84
2022-10-22T02:40:54.016Z,14.78
2022-10-22T02:44:56.059Z,14.75
2022-10-22T02:48:58.100Z,14.68
2022-10-22T02:53:00.077Z,14.66
2022-10-22T02:57:02.572Z,14.72
2022-10-22T03:01:04.746Z,14.81
2022-10-22T03:05:07.627Z,14.85
2022-10-22T03:09:10.257Z,14.90
2022-10-22T03:13:12.406Z,14.92
2022-10-22T03:17:14.615Z,14.92
2022-10-22T03:21:36.037Z,14.92
2022-10-22T03:25:42.999Z,14.90
2022-10-22T03:29:46.850Z,14.89
2022-10-22T03:33:48.939Z,14.85
2022-10-22T03:37:51.525Z,14.80
2022-10-22T03:41:53.949Z,14.76
2022-10-22T03:45:56.018Z,14.75
2022-10-22T03:49:58.002Z,14.74
2022-10-22T03:54:00.079Z,14.75
2022-10-22T03:58:02.626Z,14.81
2022-10-22T04:02:04.619Z,14.82
2022-10-22T04:06:09.419Z,14.86
2022-10-22T04:10:11.424Z,14.92
2022-10-22T04:14:13.440Z,14.94
2022-10-22T04:18:15.434Z,14.96
2022-10-22T04:22:17.459Z,14.98
2022-10-22T04:26:20.471Z,14.96
2022-10-22T04:30:22.506Z,14.92
2022-10-22T04:34:27.560Z,14.88
2022-10-22T04:38:29.533Z,14.83
2022-10-22T04:42:31.792Z,14.80
2022-10-22T04:46:35.183Z,14.75
2022-10-22T04:50:37.239Z,14.76
2022-10-22T04:54:40.318Z,14.80
2022-10-22T04:58:44.013Z,14.82
2022-10-22T05:02:49.763Z,14.89
2022-10-22T05:06:52.609Z,14.91
2022-10-22T05:10:54.620Z,14.87
2022-10-22T05:14:56.621Z,14.77
2022-10-22T05:19:00.741Z,14.68
2022-10-22T05:23:02.808Z,14.56
2022-10-22T05:27:05.110Z,14.46
2022-10-22T05:31:08.618Z,14.35
2022-10-22T05:35:10.640Z,14.25
2022-10-22T05:39:12.888Z,14.19
2022-10-22T05:43:14.892Z,14.15
2022-10-22T05:47:16.913Z,14.17
2022-10-22T05:51:20.369Z,14.25
2022-10-22T05:55:22.414Z,14.32
2022-10-22T05:59:24.440Z,14.30
2022-10-22T06:03:26.579Z,14.25
2022-10-22T06:07:28.584Z,14.16
2022-10-22T06:11:34.181Z,14.11
2022-10-22T06:15:37.365Z,14.09
2022-10-22T06:19:39.357Z,14.29
2022-10-22T06:23:42.286Z,14.61
2022-10-22T06:27:48.735Z,14.80
2022-10-22T06:31:50.840Z,14.63
2022-10-22T06:35:53.343Z,14.48
2022-10-22T06:39:55.438Z,14.38
2022-10-22T06:43:58.122Z,14.27
2022-10-22T06:48:00.219Z,14.17
2022-10-22T06:52:02.207Z,14.12
2022-10-22T06:56:08.946Z,14.15
2022-10-22T07:00:11.539Z,14.17
2022-10-22T07:04:13.521Z,14.22
2022-10-22T07:08:15.555Z,14.26
2022-10-22T07:12:17.559Z,14.33
2022-10-22T07:16:19.702Z,14.38
2022-10-22T07:20:21.752Z,14.39
2022-10-22T07:24:23.757Z,14.43
2022-10-22T07:28:25.944Z,14.45
2022-10-22T07:32:28.185Z,14.48
2022-10-22T07:36:30.246Z,14.50
2022-10-22T07:40:33.296Z,14.55
2022-10-22T07:44:35.340Z,14.61
2022-10-22T07:48:37.920Z,14.67
2022-10-22T07:52:40.204Z,14.74
2022-10-22T07:56:42.379Z,14.83
2022-10-22T08:00:44.925Z,15.03
2022-10-22T08:04:46.918Z,15.11
2022-10-22T08:08:49.392Z,15.16
2022-10-22T08:12:51.463Z,15.33
2022-10-22T08:16:53.605Z,15.52
2022-10-22T08:20:56.255Z,15.70
2022-10-22T08:24:59.064Z,15.87
2022-10-22T08:29:01.083Z,16.01
2022-10-22T08:33:03.272Z,16.22
2022-10-22T08:37:06.175Z,16.33
2022-10-22T08:41:16.230Z,16.46
2022-10-22T08:45:26.241Z,16.49
2022-10-22T08:49:32.211Z,16.57
2022-10-22T08:54:00.086Z,16.63
2022-10-22T08:58:20.150Z,16.67
2022-10-22T09:02:50.084Z,16.74
2022-10-22T09:06:54.502Z,16.86
2022-10-22T09:11:06.835Z,17.01
2022-10-22T09:15:16.742Z,17.03
2022-10-22T09:19:30.945Z,17.05
2022-10-22T09:23:41.372Z,17.06
2022-10-22T09:27:43.872Z,17.11
2022-10-22T09:31:46.217Z,17.17
2022-10-22T09:36:03.336Z,17.21
2022-10-22T09:40:05.804Z,17.26
2022-10-22T09:44:07.806Z,17.35
2022-10-22T09:48:14.918Z,17.51
2022-10-22T09:52:28.206Z,17.60
2022-10-22T09:56:36.467Z,17.69
2022-10-22T10:00:40.249Z,17.65
2022-10-22T10:04:48.311Z,17.61
2022-10-22T10:08:50.510Z,17.71
2022-10-22T10:13:02.057Z,17.93
2022-10-22T10:17:28.105Z,18.16
2022-10-22T10:21:52.136Z,18.28
2022-10-22T10:26:14.135Z,18.37
2022-10-22T10:30:19.260Z,18.39
2022-10-22T10:34:46.274Z,18.36
2022-10-22T10:39:01.591Z,18.39
2022-10-22T10:43:27.866Z,18.48
2022-10-22T10:47:48.608Z,18.57
2022-10-22T10:52:08.864Z,18.45
2022-10-22T10:56:38.384Z,18.37
2022-10-22T11:00:53.350Z,18.35
2022-10-22T11:05:14.261Z,18.51
2022-10-22T11:09:27.476Z,18.62
2022-10-22T11:13:45.432Z,18.81
2022-10-22T11:17:48.875Z,18.93
2022-10-22T11:22:10.503Z,18.98
2022-10-22T11:26:27.592Z,18.90
2022-10-22T11:30:35.096Z,18.86
2022-10-22T11:34:45.827Z,18.84
2022-10-22T11:38:48.409Z,18.83
2022-10-22T11:42:57.420Z,18.91
2022-10-22T11:47:16.393Z,19.07
2022-10-22T11:51:39.232Z,19.19
2022-10-22T11:55:45.546Z,19.21
2022-10-22T11:59:59.340Z,19.27
2022-10-22T12:04:20.386Z,19.36
2022-10-22T12:08:25.884Z,19.35
2022-10-22T12:12:29.439Z,19.48
2022-10-22T12:16:57.219Z,19.69
2022-10-22T12:20:59.853Z,19.76
2022-10-22T12:25:09.443Z,19.83
2022-10-22T12:29:14.507Z,19.80
2022-10-22T12:33:20.393Z,19.71
2022-10-22T12:37:22.374Z,19.78
2022-10-22T12:41:34.789Z,20.15
2022-10-22T12:45:38.227Z,20.18
2022-10-22T12:49:43.858Z,20.07
2022-10-22T12:53:49.341Z,20.18
2022-10-22T12:57:52.277Z,20.27
2022-10-22T13:01:55.083Z,20.20
2022-10-22T13:05:57.286Z,20.08
2022-10-22T13:09:59.970Z,19.89
2022-10-22T13:14:04.374Z,19.68
2022-10-22T13:18:33.069Z,19.58
2022-10-22T13:22:41.496Z,19.37
2022-10-22T13:26:43.566Z,19.14
2022-10-22T13:30:55.316Z,18.88
2022-10-22T13:35:02.189Z,18.69
2022-10-22T13:39:06.334Z,18.59
2022-10-22T13:43:08.321Z,18.72
2022-10-22T13:47:29.629Z,19.07
2022-10-22T13:51:37.445Z,19.36
2022-10-22T13:55:39.471Z,19.39
2022-10-22T13:59:41.513Z,19.45
2022-10-22T14:03:43.716Z,19.48
2022-10-22T14:07:46.135Z,19.46
2022-10-22T14:11:48.132Z,19.45
2022-10-22T14:15:52.303Z,19.47
2022-10-22T14:19:54.518Z,19.40
2022-10-22T14:23:56.503Z,19.42
2022-10-22T14:27:58.524Z,19.50
2022-10-22T14:32:00.522Z,19.52
2022-10-22T14:36:02.808Z,19.57
2022-10-22T14:40:05.499Z,19.58
2022-10-22T14:44:12.481Z,19.46
2022-10-22T14:48:15.965Z,19.37
2022-10-22T14:52:18.364Z,19.25
2022-10-22T14:56:23.233Z,19.17
2022-10-22T15:00:25.378Z,19.17
2022-10-22T15:04:28.254Z,19.15
2022-10-22T15:08:31.033Z,18.99
2022-10-22T15:12:33.583Z,18.82
2022-10-22T15:16:35.581Z,18.70
2022-10-22T15:20:37.672Z,18.70
2022-10-22T15:24:41.049Z,18.71
2022-10-22T15:28:43.268Z,18.72
2022-10-22T15:32:45.340Z,18.69
2022-10-22T15:36:47.461Z,18.61
2022-10-22T15:40:49.452Z,18.52
2022-10-22T15:44:58.132Z,18.45
2022-10-22T15:49:00.173Z,18.36
2022-10-22T15:53:02.146Z,18.22
2022-10-22T15:57:08.340Z,18.06
2022-10-22T16:01:13.048Z,17.90
2022-10-22T16:05:15.137Z,17.74
2022-10-22T16:09:20.198Z,17.58
2022-10-22T16:13:24.395Z,17.39
2022-10-22T16:17:26.368Z,17.22
2022-10-22T16:21:28.778Z,17.07
2022-10-22T16:25:30.783Z,16.96
2022-10-22T16:29:33.039Z,16.83
2022-10-22T16:33:41.490Z,16.64
2022-10-22T16:37:48.248Z,16.40
2022-10-22T16:41:50.295Z,16.23
2022-10-22T16:45:52.385Z,16.14
2022-10-22T16:49:54.924Z,16.11
2022-10-22T16:53:57.580Z,16.03
2022-10-22T16:57:59.620Z,15.99
2022-10-22T17:02:01.756Z,15.83
2022-10-22T17:06:05.255Z,15.72
2022-10-22T17:10:08.931Z,15.61
2022-10-22T17:14:11.196Z,15.53
2022-10-22T17:18:13.314Z,15.45
2022-10-22T17:22:17.699Z,15.33
2022-10-22T17:26:22.608Z,15.10
2022-10-22T17:30:27.227Z,14.81
2022-10-22T17:34:33.054Z,14.60
2022-10-22T17:38:35.413Z,14.49
2022-10-22T17:42:37.444Z,14.44
2022-10-22T17:46:39.553Z,14.39
2022-10-22T17:50:45.741Z,14.31
2022-10-22T17:54:50.111Z,14.31
2022-10-22T17:58:52.596Z,14.32
2022-10-22T18:02:54.697Z,14.17
2022-10-22T18:06:57.278Z,14.16
2022-10-22T18:10:59.855Z,14.14
2022-10-22T18:15:01.821Z,14.13
2022-10-22T18:19:04.276Z,13.94
2022-10-22T18:23:06.349Z,13.71
2022-10-22T18:27:08.379Z,13.62
2022-10-22T18:31:13.465Z,13.65
2022-10-22T18:35:15.514Z,13.65
2022-10-22T18:39:17.825Z,13.67
2022-10-22T18:43:19.912Z,13.75
2022-10-22T18:47:22.278Z,13.85
2022-10-22T18:51:30.566Z,13.88
2022-10-22T18:55:34.779Z,13.88
2022-10-22T18:59:37.007Z,13.82
2022-10-22T19:03:39.489Z,13.80
2022-10-22T19:07:41.706Z,13.78
2022-10-22T19:11:44.790Z,13.75
2022-10-22T19:15:46.880Z,13.70
2022-10-22T19:19:48.876Z,13.63
2022-10-22T19:23:51.573Z,13.60
2022-10-22T19:27:53.735Z,13.58
2022-10-22T19:31:55.845Z,13.58
2022-10-22T19:35:57.857Z,13.54
2022-10-22T19:39:59.923Z,13.53
2022-10-22T19:44:01.941Z,13.50
2022-10-22T19:48:04.114Z,13.48
2022-10-22T19:52:06.120Z,13.49
2022-10-22T19:56:10.592Z,13.51
2022-10-22T20:00:12.885Z,13.50
2022-10-22T20:04:18.189Z,13.49
2022-10-22T20:08:20.192Z,13.48
2022-10-22T20:12:22.201Z,13.48
2022-10-22T20:16:28.422Z,13.49
2022-10-22T20:20:30.694Z,13.48
2022-10-22T20:24:32.724Z,13.49
2022-10-22T20:28:34.720Z,13.48
2022-10-22T20:32:38.177Z,13.67
2022-10-22T20:36:40.221Z,13.75
2022-10-22T20:40:42.240Z,13.78
2022-10-22T20:44:44.251Z,13.76
2022-10-22T20:48:46.768Z,13.77
2022-10-22T20:52:48.752Z,13.80
2022-10-22T20:56:50.824Z,13.81
2022-10-22T21:00:54.303Z,13.78
2022-10-22T21:04:56.339Z,13.78
2022-10-22T21:08:58.438Z,13.82
2022-10-22T21:13:00.497Z,13.85
2022-10-22T21:17:02.529Z,13.88
2022-10-22T21:21:06.247Z,13.88
2022-10-22T21:25:08.622Z,13.88
2022-10-22T21:29:12.717Z,13.84
2022-10-22T21:33:14.848Z,13.78
2022-10-22T21:37:16.819Z,13.72
2022-10-22T21:41:20.996Z,13.69
2022-10-22T21:45:23.066Z,13.64
2022-10-22T21:49:25.164Z,13.60
2022-10-22T21:53:27.149Z,13.60
2022-10-22T21:57:29.177Z,13.53
2022-10-22T22:01:31.685Z,13.49
2022-10-22T22:05:34.162Z,13.50
2022-10-22T22:09:36.302Z,13.44
2022-10-22T22:13:38.460Z,13.29
2022-10-22T22:17:40.467Z,13.24
2022-10-22T22:21:43.209Z,13.16
2022-10-22T22:25:46.054Z,13.05
2022-10-22T22:29:48.054Z,12.88
2022-10-22T22:33:50.959Z,12.79
2022-10-22T22:37:52.969Z,12.76
2022-10-22T22:41:54.985Z,12.68
2022-10-22T22:46:08.485Z,12.57
2022-10-22T22:50:10.517Z,12.47
2022-10-22T22:54:12.536Z,12.41
2022-10-22T22:58:14.905Z,12.29
2022-10-22T23:02:16.962Z,12.26
2022-10-22T23:06:18.996Z,12.32
2022-10-22T23:10:21.089Z,12.26
2022-10-22T23:14:23.337Z,12.21
2022-10-22T23:18:25.868Z,12.16
2022-10-22T23:22:27.910Z,12.13
2022-10-22T23:26:32.132Z,12.10
2022-10-22T23:30:34.179Z,12.10
2022-10-22T23:34:36.287Z,12.04
2022-10-22T23:38:40.340Z,11.96
2022-10-22T23:42:44.777Z,11.97
2022-10-22T23:46:46.948Z,11.97
2022-10-22T23:50:49.467Z,11.97
2022-10-22T23:54:51.523Z,11.93
2022-10-22T23:58:54.485Z,11.89
